Time;durP1;ratioP1;P1;durP2;ratioP2;P2;SDS_P1;SDS_P2;PMS_P1;PMS_P2;Temp;Humidity;BMP_temperature;BMP_pressure;BME280_temperature;BME280_humidity;BME280_pressure;Samples;Min_cycle;Max_cycle;Signal;HPM_P1;HPM_P2
2021/04/30 00:00:54;;;;;;;4.45;4.05;;;13.60;54.20;;;;;;5107234;28;27379;-55
2021/04/30 00:03:41;;;;;;;5.78;4.68;;;13.60;54.40;;;;;;5106963;28;27381;-57
2021/04/30 00:06:27;;;;;;;8.77;4.47;;;13.60;54.40;;;;;;5103910;28;27437;-56
2021/04/30 00:09:14;;;;;;;6.00;4.63;;;13.60;54.40;;;;;;5106949;28;27521;-57
2021/04/30 00:12:00;;;;;;;7.40;4.47;;;13.60;54.20;;;;;;5106993;28;27503;-57
2021/04/30 00:14:47;;;;;;;5.20;4.70;;;13.60;54.60;;;;;;5106076;28;27431;-57
2021/04/30 00:17:33;;;;;;;6.85;5.35;;;13.60;54.90;;;;;;5106613;28;27473;-57
2021/04/30 00:20:19;;;;;;;8.13;4.90;;;13.50;54.80;;;;;;5102603;28;27400;-56
2021/04/30 00:23:12;;;;;;;5.32;4.55;;;13.50;55.00;;;;;;5106530;28;27344;-56
2021/04/30 00:26:01;;;;;;;4.95;4.50;;;13.50;55.20;;;;;;5102378;28;27351;-58
2021/04/30 00:28:48;;;;;;;8.35;6.32;;;13.50;55.40;;;;;;5106756;28;28102;-57
2021/04/30 00:31:34;;;;;;;6.30;5.70;;;13.50;55.00;;;;;;5106631;28;27508;-56
2021/04/30 00:34:22;;;;;;;6.55;5.65;;;13.50;55.50;;;;;;5089686;28;27453;-57
2021/04/30 00:37:08;;;;;;;6.00;5.38;;;13.40;55.40;;;;;;5105472;28;27351;-56
2021/04/30 00:39:55;;;;;;;6.20;5.40;;;13.40;55.90;;;;;;5106591;28;28000;-56
2021/04/30 00:42:42;;;;;;;6.90;4.78;;;13.40;56.00;;;;;;5106439;28;27388;-54
2021/04/30 00:45:28;;;;;;;5.95;5.35;;;13.30;56.20;;;;;;5101978;28;27468;-56
2021/04/30 00:48:15;;;;;;;5.80;5.20;;;13.30;56.20;;;;;;5105444;27;27477;-57
2021/04/30 00:51:02;;;;;;;7.15;5.55;;;13.20;56.10;;;;;;5106267;28;27501;-56
2021/04/30 00:53:48;;;;;;;6.82;5.03;;;13.20;56.30;;;;;;5102130;28;27425;-56
2021/04/30 00:56:35;;;;;;;6.05;4.60;;;13.20;56.50;;;;;;5105165;28;27423;-56
2021/04/30 00:59:21;;;;;;;6.60;5.20;;;13.20;56.30;;;;;;5105374;28;27409;-56
2021/04/30 01:02:08;;;;;;;5.88;5.28;;;13.20;56.10;;;;;;5104658;28;27429;-56
2021/04/30 01:04:55;;;;;;;5.75;4.85;;;13.20;56.10;;;;;;5104845;28;27462;-56
2021/04/30 01:07:42;;;;;;;7.50;5.07;;;13.20;56.70;;;;;;5106195;28;27479;-56
2021/04/30 01:10:29;;;;;;;5.47;4.78;;;13.20;56.80;;;;;;5106065;28;27332;-56
2021/04/30 01:13:15;;;;;;;5.53;4.95;;;13.10;56.30;;;;;;5105725;28;27346;-56
2021/04/30 01:16:02;;;;;;;6.85;4.78;;;13.10;56.40;;;;;;5105074;28;27445;-55
2021/04/30 01:18:49;;;;;;;5.43;4.93;;;13.00;56.70;;;;;;5105158;28;27443;-57
2021/04/30 01:21:35;;;;;;;8.38;5.88;;;13.00;56.80;;;;;;5104977;28;27478;-57
2021/04/30 01:24:22;;;;;;;5.32;4.82;;;13.00;56.90;;;;;;5104831;28;27498;-57
2021/04/30 01:27:08;;;;;;;6.63;5.28;;;13.00;57.50;;;;;;5104913;28;27511;-56
2021/04/30 01:29:54;;;;;;;6.53;5.45;;;13.00;57.20;;;;;;5104671;28;27348;-57
2021/04/30 01:32:41;;;;;;;6.07;5.28;;;12.90;57.50;;;;;;5105361;28;27321;-56
2021/04/30 01:35:29;;;;;;;8.20;5.10;;;12.90;57.60;;;;;;5105335;28;27418;-56
2021/04/30 01:38:16;;;;;;;7.18;4.88;;;12.90;57.50;;;;;;5105374;28;27443;-56
2021/04/30 01:41:03;;;;;;;8.07;5.65;;;12.90;57.60;;;;;;5104606;28;27413;-56
2021/04/30 01:43:50;;;;;;;7.60;5.57;;;12.90;57.60;;;;;;5105264;28;27388;-57
2021/04/30 01:46:37;;;;;;;5.40;4.85;;;12.90;57.40;;;;;;5104926;28;27409;-56
2021/04/30 01:49:25;;;;;;;9.40;4.90;;;12.90;57.60;;;;;;5104432;28;27521;-55
2021/04/30 01:52:12;;;;;;;6.53;5.63;;;12.90;58.10;;;;;;5104437;28;27419;-55
2021/04/30 01:54:58;;;;;;;5.90;5.30;;;12.90;57.60;;;;;;5104073;28;27456;-57
2021/04/30 01:57:47;;;;;;;6.35;5.10;;;12.90;57.90;;;;;;5104767;27;27403;-56
2021/04/30 02:00:34;;;;;;;5.25;4.75;;;12.90;57.90;;;;;;5105406;28;27545;-56
2021/04/30 02:03:20;;;;;;;6.63;5.38;;;12.80;58.00;;;;;;5104419;28;27543;-57
2021/04/30 02:06:06;;;;;;;7.50;5.15;;;12.80;58.00;;;;;;5105166;28;27474;-57
2021/04/30 02:08:56;;;;;;;7.03;5.35;;;12.80;58.30;;;;;;5102032;28;27411;-57
2021/04/30 02:11:43;;;;;;;8.25;5.55;;;12.70;58.30;;;;;;5104366;28;27370;-56
2021/04/30 02:14:29;;;;;;;6.57;5.90;;;12.70;58.40;;;;;;5105203;28;27411;-57
2021/04/30 02:17:16;;;;;;;7.32;5.97;;;12.70;58.80;;;;;;5100929;28;27445;-58
2021/04/30 02:20:03;;;;;;;6.43;5.40;;;12.70;59.00;;;;;;5101755;28;27485;-57
2021/04/30 02:22:50;;;;;;;7.18;5.65;;;12.70;58.90;;;;;;5104542;28;27369;-58
2021/04/30 02:25:36;;;;;;;6.30;5.68;;;12.60;59.60;;;;;;5104770;28;27351;-58
2021/04/30 02:28:23;;;;;;;6.90;6.20;;;12.60;59.20;;;;;;5100784;28;27399;-58
2021/04/30 02:31:09;;;;;;;6.57;5.75;;;12.60;59.20;;;;;;5104783;28;27494;-57
2021/04/30 02:33:56;;;;;;;7.53;5.82;;;12.60;59.00;;;;;;5104487;28;27489;-58
2021/04/30 02:36:46;;;;;;;8.57;6.35;;;12.50;59.30;;;;;;5101605;28;27466;-57
2021/04/30 02:39:33;;;;;;;6.75;5.72;;;12.50;59.40;;;;;;5104755;28;27405;-57
2021/04/30 02:42:23;;;;;;;6.20;5.47;;;12.50;59.60;;;;;;5103452;28;27438;-57
2021/04/30 02:45:11;;;;;;;6.63;5.45;;;12.50;59.70;;;;;;5104771;28;27355;-57
2021/04/30 02:47:57;;;;;;;6.18;5.57;;;12.40;59.70;;;;;;5104376;28;27355;-57
2021/04/30 02:50:44;;;;;;;10.88;6.60;;;12.40;59.70;;;;;;5086096;28;27424;-57
2021/04/30 02:53:31;;;;;;;7.68;5.75;;;12.40;59.70;;;;;;5103856;28;27439;-57
2021/04/30 02:56:17;;;;;;;6.05;5.38;;;12.40;59.90;;;;;;5103617;28;27553;-58
2021/04/30 02:59:05;;;;;;;9.85;6.13;;;12.30;59.90;;;;;;5104466;28;27497;-58
2021/04/30 03:01:52;;;;;;;7.97;6.15;;;12.30;60.00;;;;;;5100384;28;27390;-58
2021/04/30 03:04:39;;;;;;;7.28;5.90;;;12.30;60.40;;;;;;5100378;28;27427;-57
2021/04/30 03:07:26;;;;;;;6.80;6.10;;;12.20;60.40;;;;;;5104227;28;27442;-57
2021/04/30 03:10:17;;;;;;;7.00;6.13;;;12.20;60.60;;;;;;5103509;28;27398;-57
2021/04/30 03:13:04;;;;;;;7.85;5.95;;;12.20;61.10;;;;;;5103241;28;27491;-57
2021/04/30 03:15:51;;;;;;;7.10;5.97;;;12.20;60.70;;;;;;5102701;28;27517;-57
2021/04/30 03:18:38;;;;;;;8.25;7.38;;;12.20;60.90;;;;;;5103290;28;27485;-57
2021/04/30 03:21:25;;;;;;;7.80;6.25;;;12.20;61.00;;;;;;5100462;28;27325;-57
2021/04/30 03:24:13;;;;;;;9.93;6.90;;;12.20;61.10;;;;;;5104159;28;27369;-57
2021/04/30 03:27:00;;;;;;;6.55;5.63;;;12.10;61.40;;;;;;5099791;28;27408;-58
2021/04/30 03:29:48;;;;;;;9.20;5.82;;;12.20;61.40;;;;;;5103065;28;27506;-57
2021/04/30 03:32:36;;;;;;;7.95;6.38;;;12.20;61.20;;;;;;5104109;28;26952;-57
2021/04/30 03:35:22;;;;;;;7.63;6.25;;;12.20;61.40;;;;;;5099592;28;27384;-57
2021/04/30 03:38:08;;;;;;;7.97;6.93;;;12.20;61.10;;;;;;5104033;28;27885;-57
2021/04/30 03:40:55;;;;;;;10.57;6.47;;;12.20;60.90;;;;;;5085370;28;27427;-57
2021/04/30 03:43:42;;;;;;;7.38;6.35;;;12.10;60.80;;;;;;5103598;28;27497;-57
2021/04/30 03:46:29;;;;;;;8.18;7.00;;;12.20;61.10;;;;;;5102815;28;27480;-57
2021/04/30 03:49:16;;;;;;;8.27;6.43;;;12.10;61.30;;;;;;5103429;28;27336;-58
2021/04/30 03:52:03;;;;;;;7.75;6.55;;;12.10;61.70;;;;;;5103622;28;27406;-57
2021/04/30 03:54:54;;;;;;;7.10;6.40;;;12.10;61.90;;;;;;5103148;28;27470;-57
2021/04/30 03:57:41;;;;;;;8.20;6.95;;;12.10;61.70;;;;;;5099375;28;27381;-58
2021/04/30 04:00:29;;;;;;;10.32;6.88;;;12.00;61.50;;;;;;5103183;28;27435;-57
2021/04/30 04:03:16;;;;;;;7.90;6.75;;;12.00;61.70;;;;;;5088746;28;27499;-57
2021/04/30 04:06:03;;;;;;;9.18;6.88;;;12.00;61.80;;;;;;5103380;28;27414;-58
2021/04/30 04:08:50;;;;;;;8.10;6.97;;;12.00;61.70;;;;;;5103511;28;27339;-57
2021/04/30 04:11:36;;;;;;;8.63;7.13;;;12.00;61.70;;;;;;5100991;28;27865;-58
2021/04/30 04:14:23;;;;;;;8.65;6.53;;;12.00;61.70;;;;;;5103245;28;27302;-58
2021/04/30 04:17:09;;;;;;;8.73;7.82;;;11.90;62.00;;;;;;5088164;28;27502;-57
2021/04/30 04:20:00;;;;;;;9.18;6.97;;;12.00;61.70;;;;;;5102609;28;27404;-57
2021/04/30 04:22:47;;;;;;;9.00;7.55;;;12.00;62.00;;;;;;5105864;27;27322;-57
2021/04/30 04:25:35;;;;;;;7.13;6.30;;;12.00;61.90;;;;;;5106452;28;27412;-57
2021/04/30 04:28:21;;;;;;;8.40;7.20;;;12.00;62.00;;;;;;5106743;28;27477;-57
2021/04/30 04:31:08;;;;;;;9.68;7.72;;;11.90;61.90;;;;;;5106045;28;27424;-57
2021/04/30 04:33:55;;;;;;;7.93;7.13;;;12.00;61.90;;;;;;5106831;28;27445;-57
2021/04/30 04:36:41;;;;;;;9.48;7.35;;;11.90;62.00;;;;;;5106273;28;27632;-57
2021/04/30 04:39:32;;;;;;;8.55;7.65;;;11.90;62.10;;;;;;5105314;28;27383;-57
2021/04/30 04:42:20;;;;;;;8.90;7.60;;;11.90;62.10;;;;;;5106467;28;27338;-57
2021/04/30 04:45:07;;;;;;;8.60;7.63;;;11.90;61.90;;;;;;5105694;28;27861;-58
2021/04/30 04:47:54;;;;;;;9.43;7.60;;;11.90;62.10;;;;;;5102042;28;27474;-57
2021/04/30 04:50:42;;;;;;;11.63;7.85;;;11.90;62.40;;;;;;5088035;28;27375;-57
2021/04/30 04:53:30;;;;;;;10.25;7.82;;;11.90;62.40;;;;;;5105340;28;27371;-57
2021/04/30 04:56:17;;;;;;;10.05;7.68;;;11.90;62.30;;;;;;5105172;28;27588;-57
2021/04/30 04:59:04;;;;;;;10.13;7.45;;;11.90;62.50;;;;;;5106339;28;27517;-57
2021/04/30 05:01:52;;;;;;;8.13;6.93;;;11.90;62.60;;;;;;5106232;28;27536;-57
2021/04/30 05:04:38;;;;;;;9.70;8.20;;;11.90;62.80;;;;;;5106217;28;27394;-57
2021/04/30 05:07:25;;;;;;;8.13;7.07;;;11.90;62.70;;;;;;5104472;28;27351;-57
2021/04/30 05:10:13;;;;;;;12.23;8.13;;;11.90;62.90;;;;;;5106124;28;27332;-57
2021/04/30 05:13:00;;;;;;;9.90;8.27;;;11.90;62.90;;;;;;5105741;28;27477;-57
2021/04/30 05:15:47;;;;;;;9.82;8.18;;;11.90;62.80;;;;;;5105870;28;27435;-58
2021/04/30 05:18:33;;;;;;;10.93;8.38;;;11.90;63.00;;;;;;5104881;28;27436;-57
2021/04/30 05:21:21;;;;;;;12.07;8.65;;;11.90;63.10;;;;;;5102584;28;27406;-57
2021/04/30 05:24:11;;;;;;;11.20;8.73;;;11.90;63.10;;;;;;5105667;28;27339;-57
2021/04/30 05:27:05;;;;;;;15.73;10.23;;;11.90;63.00;;;;;;5105450;28;27458;-57
2021/04/30 05:29:52;;;;;;;13.20;8.98;;;11.90;63.20;;;;;;5105727;28;27411;-57
2021/04/30 05:32:39;;;;;;;18.20;11.57;;;11.90;63.10;;;;;;5104368;28;27525;-57
2021/04/30 05:35:26;;;;;;;15.18;9.90;;;11.90;63.30;;;;;;5105111;28;27356;-57
2021/04/30 05:38:13;;;;;;;14.73;9.65;;;11.90;62.90;;;;;;5090457;28;27323;-58
2021/04/30 05:41:00;;;;;;;13.05;9.13;;;11.90;63.00;;;;;;5105942;28;27411;-57
2021/04/30 05:43:47;;;;;;;12.35;9.05;;;11.90;63.40;;;;;;5105219;28;27661;-58
2021/04/30 05:46:34;;;;;;;11.45;8.60;;;11.90;63.50;;;;;;5104570;28;27371;-58
2021/04/30 05:49:21;;;;;;;15.55;9.07;;;11.90;63.30;;;;;;5105282;28;27338;-58
2021/04/30 05:52:09;;;;;;;12.25;9.35;;;12.00;63.20;;;;;;5101018;28;27422;-57
2021/04/30 05:54:56;;;;;;;12.02;9.38;;;12.00;62.40;;;;;;5104569;28;27466;-58
2021/04/30 05:57:57;;;;;;;12.88;9.15;;;12.00;63.10;;;;;;5105286;28;27497;-58
2021/04/30 06:00:47;;;;;;;12.55;9.32;;;12.00;63.30;;;;;;5089483;28;27446;-57
2021/04/30 06:03:34;;;;;;;12.35;9.45;;;12.10;63.20;;;;;;5086668;28;27873;-58
2021/04/30 06:06:25;;;;;;;12.93;8.95;;;12.20;62.90;;;;;;5103100;28;29088;-58
2021/04/30 06:09:12;;;;;;;11.02;8.20;;;12.20;62.60;;;;;;5104159;28;27431;-58
2021/04/30 06:11:59;;;;;;;11.88;8.60;;;12.30;62.60;;;;;;5086496;28;27416;-58
2021/04/30 06:14:47;;;;;;;11.73;8.95;;;12.40;61.80;;;;;;5103719;28;27434;-58
2021/04/30 06:17:33;;;;;;;10.23;8.38;;;12.40;61.60;;;;;;5100475;28;27443;-58
2021/04/30 06:20:21;;;;;;;12.68;8.55;;;12.40;61.10;;;;;;5104449;28;27580;-58
2021/04/30 06:23:08;;;;;;;12.00;9.20;;;12.30;61.50;;;;;;5100650;28;27477;-58
2021/04/30 06:26:02;;;;;;;13.70;8.95;;;12.30;61.80;;;;;;5088746;28;27391;-63
2021/04/30 06:28:52;;;;;;;9.25;7.53;;;12.30;61.40;;;;;;5104604;28;27413;-59
2021/04/30 06:31:39;;;;;;;9.82;7.85;;;12.30;62.00;;;;;;5103629;28;27431;-58
2021/04/30 06:34:26;;;;;;;9.60;8.10;;;12.30;62.40;;;;;;5103866;28;27452;-58
2021/04/30 06:37:16;;;;;;;9.80;8.20;;;12.30;61.80;;;;;;5104276;28;27419;-58
2021/04/30 06:40:20;;;;;;;10.85;8.05;;;12.40;62.40;;;;;;5103531;28;27407;-58
2021/04/30 06:43:11;;;;;;;12.20;8.70;;;12.40;62.30;;;;;;5100197;28;27523;-58
2021/04/30 06:45:59;;;;;;;8.80;7.45;;;12.40;62.70;;;;;;5085455;28;27446;-58
2021/04/30 06:48:53;;;;;;;9.57;7.60;;;12.40;61.00;;;;;;5099897;28;27371;-58
2021/04/30 06:51:43;;;;;;;11.82;8.43;;;12.40;61.20;;;;;;5086009;28;27568;-58
2021/04/30 06:54:32;;;;;;;9.40;8.40;;;12.40;60.80;;;;;;5103483;28;27370;-59
2021/04/30 06:57:21;;;;;;;11.73;8.57;;;12.40;60.80;;;;;;5085342;28;27400;-58
2021/04/30 07:00:16;;;;;;;10.75;8.07;;;12.50;61.70;;;;;;5103395;28;27360;-58
2021/04/30 07:03:07;;;;;;;10.90;9.05;;;12.40;61.60;;;;;;5085741;28;27444;-59
2021/04/30 07:05:58;;;;;;;12.95;8.30;;;12.40;61.10;;;;;;5104011;28;27381;-58
2021/04/30 07:08:47;;;;;;;11.30;8.25;;;12.40;61.90;;;;;;5103984;28;27410;-58
2021/04/30 07:11:36;;;;;;;12.15;8.15;;;12.40;62.00;;;;;;5100487;28;27389;-58
2021/04/30 07:14:27;;;;;;;10.85;8.63;;;12.50;61.90;;;;;;5103718;28;27381;-59
2021/04/30 07:17:15;;;;;;;11.88;8.82;;;12.50;61.20;;;;;;5099874;28;27366;-58
2021/04/30 07:20:12;;;;;;;13.80;9.27;;;12.50;61.60;;;;;;5099637;28;27366;-57
2021/04/30 07:23:00;;;;;;;10.90;8.20;;;12.60;61.90;;;;;;5102791;28;27463;-58
2021/04/30 07:25:48;;;;;;;12.05;8.68;;;12.60;61.60;;;;;;5103697;28;27449;-58
2021/04/30 07:28:39;;;;;;;11.10;8.10;;;12.60;61.50;;;;;;5099536;28;27399;-59
2021/04/30 07:31:30;;;;;;;10.70;8.02;;;12.60;61.60;;;;;;5099432;28;27491;-59
2021/04/30 07:34:20;;;;;;;12.90;8.82;;;12.70;61.60;;;;;;5099270;28;27320;-58
2021/04/30 07:37:28;;;;;;;10.63;8.10;;;12.70;62.50;;;;;;5085541;28;27467;-59
2021/04/30 07:40:58;;;;;;;10.23;7.82;;;12.70;61.90;;;;;;5102903;28;27357;-59
2021/04/30 07:43:52;;;;;;;9.70;8.23;;;12.80;60.80;;;;;;5085372;28;27472;-58
2021/04/30 07:46:43;;;;;;;10.45;8.32;;;12.70;61.00;;;;;;5102973;28;27450;-58
2021/04/30 07:49:41;;;;;;;12.20;8.10;;;12.80;62.10;;;;;;5099139;28;27458;-58
2021/04/30 07:52:40;;;;;;;10.63;8.50;;;12.70;62.80;;;;;;5103289;28;27426;-58
2021/04/30 07:55:32;;;;;;;13.50;9.15;;;12.70;62.90;;;;;;5102620;28;27442;-58
2021/04/30 07:58:37;;;;;;;9.82;8.35;;;12.70;62.30;;;;;;5105993;28;27838;-59
2021/04/30 08:02:09;;;;;;;9.30;7.82;;;12.70;63.60;;;;;;5105944;28;27544;-58
2021/04/30 08:09:09;;;;;;;11.65;7.78;;;12.80;63.10;;;;;;5104994;28;27504;-58
2021/04/30 08:12:04;;;;;;;12.68;8.82;;;12.80;62.20;;;;;;5089317;28;27380;-58
2021/04/30 08:14:59;;;;;;;9.70;7.78;;;12.80;62.30;;;;;;5104568;28;27392;-58
2021/04/30 08:17:58;;;;;;;12.32;7.75;;;12.80;63.20;;;;;;5102488;28;27442;-58
2021/04/30 08:20:54;;;;;;;11.18;8.75;;;12.80;63.80;;;;;;5088249;28;27453;-59
2021/04/30 08:23:50;;;;;;;17.38;10.95;;;12.80;62.80;;;;;;5106391;28;27500;-58
2021/04/30 08:26:41;;;;;;;16.98;12.10;;;12.90;61.80;;;;;;5102310;28;27434;-60
2021/04/30 08:29:33;;;;;;;14.95;8.95;;;13.00;62.10;;;;;;5103138;28;27358;-63
2021/04/30 08:32:27;;;;;;;10.88;8.80;;;13.10;62.10;;;;;;5088288;28;27329;-58
2021/04/30 08:35:34;;;;;;;14.48;10.10;;;13.20;62.10;;;;;;5088367;28;27438;-59
2021/04/30 08:38:52;;;;;;;11.07;8.77;;;13.30;62.10;;;;;;5102190;28;27416;-58
2021/04/30 08:41:51;;;;;;;12.35;8.15;;;13.50;61.10;;;;;;5106006;28;27479;-58
2021/04/30 08:45:18;;;;;;;11.85;8.98;;;13.60;60.90;;;;;;5101974;28;27450;-58
2021/04/30 08:57:12;;;;;;;10.48;8.75;;;13.80;59.70;;;;;;5093336;28;27643;-58
2021/04/30 09:00:49;;;;;;;10.95;8.77;;;13.80;60.60;;;;;;5105646;28;27419;-60
2021/04/30 09:04:24;;;;;;;13.02;9.55;;;13.80;59.50;;;;;;5101527;28;27337;-58
2021/04/30 09:11:52;;;;;;;12.38;8.48;;;13.80;59.00;;;;;;5080740;28;27479;-58
2021/04/30 09:14:52;;;;;;;14.73;9.20;;;13.70;59.10;;;;;;5083470;28;27412;-58
2021/04/30 09:18:42;;;;;;;9.50;8.23;;;13.80;60.00;;;;;;5072533;28;27518;-58
2021/04/30 09:21:39;;;;;;;12.68;9.20;;;13.80;61.10;;;;;;5083634;28;27424;-58
2021/04/30 14:25:10;;;;;;;7.97;6.53;;;12.30;71.40;;;;;;3501186;28;29293;-67
2021/04/30 14:28:58;;;;;;;9.80;6.75;;;12.30;70.80;;;;;;5105484;28;27312;-59
2021/04/30 14:31:55;;;;;;;10.20;7.28;;;12.30;71.10;;;;;;5101368;28;27458;-59
2021/04/30 14:34:45;;;;;;;10.65;6.82;;;12.30;71.10;;;;;;5087845;28;27439;-59
2021/04/30 14:37:36;;;;;;;8.15;7.28;;;12.30;71.30;;;;;;5087284;28;27434;-59
2021/04/30 14:40:25;;;;;;;7.75;6.35;;;12.20;71.30;;;;;;5104796;28;27495;-59
2021/04/30 14:43:12;;;;;;;9.77;7.88;;;12.20;71.40;;;;;;5101548;28;27411;-58
2021/04/30 14:46:03;;;;;;;8.48;7.03;;;12.20;71.10;;;;;;5101257;28;27391;-58
2021/04/30 14:48:57;;;;;;;7.43;6.53;;;12.20;71.10;;;;;;5101028;28;27399;-59
2021/04/30 14:51:47;;;;;;;9.27;6.80;;;12.20;71.40;;;;;;5101046;28;27473;-59
2021/04/30 14:54:43;;;;;;;8.48;7.57;;;12.20;71.70;;;;;;5087014;28;27473;-58
2021/04/30 14:57:37;;;;;;;9.10;7.90;;;12.20;71.80;;;;;;5104810;28;27476;-58
2021/04/30 15:01:04;;;;;;;9.70;7.65;;;12.20;71.60;;;;;;5100791;28;27484;-58
2021/04/30 15:04:14;;;;;;;9.77;6.88;;;12.20;72.40;;;;;;5100821;28;27420;-58
2021/04/30 15:07:10;;;;;;;9.82;7.65;;;12.10;71.90;;;;;;5102009;28;27409;-58
2021/04/30 15:10:07;;;;;;;7.57;6.70;;;12.10;71.80;;;;;;5086785;28;27480;-58
2021/04/30 15:13:01;;;;;;;9.68;8.32;;;12.10;72.10;;;;;;5100925;28;27380;-58
2021/04/30 15:16:13;;;;;;;9.00;6.80;;;12.10;71.90;;;;;;5087073;28;27346;-58
2021/04/30 15:19:49;;;;;;;9.15;7.00;;;12.00;71.60;;;;;;5104591;28;27382;-63
2021/04/30 15:23:11;;;;;;;7.78;6.65;;;12.00;72.10;;;;;;5104511;28;27382;-58
2021/04/30 15:26:46;;;;;;;9.60;8.07;;;12.00;72.10;;;;;;5102921;28;27502;-58
2021/04/30 15:34:28;;;;;;;10.45;8.05;;;11.90;72.00;;;;;;5101083;28;27470;-58
2021/04/30 15:49:40;;;;;;;11.30;8.98;;;12.00;71.30;;;;;;5103979;28;27405;-57
2021/04/30 15:52:25;;;;;;;10.68;9.02;;;12.00;71.70;;;;;;5104201;28;27972;-65
2021/04/30 15:55:13;;;;;;;14.25;9.48;;;12.00;72.30;;;;;;5104468;28;27367;-58
2021/04/30 15:57:58;;;;;;;13.02;10.35;;;12.00;72.00;;;;;;5104275;28;27388;-57
2021/04/30 16:00:44;;;;;;;16.15;11.55;;;12.00;72.10;;;;;;5103540;28;27398;-58
2021/04/30 16:03:30;;;;;;;12.55;9.57;;;12.00;71.90;;;;;;5104012;28;27389;-58
2021/04/30 16:06:15;;;;;;;14.00;11.23;;;12.00;71.50;;;;;;5103898;28;27477;-58
2021/04/30 16:09:01;;;;;;;12.65;10.50;;;12.00;71.60;;;;;;5104084;28;27471;-58
2021/04/30 16:11:45;;;;;;;11.98;9.82;;;11.90;71.50;;;;;;5104082;28;27401;-58
2021/04/30 16:14:30;;;;;;;17.70;10.90;;;11.90;71.70;;;;;;5103952;28;28009;-57
2021/04/30 16:17:15;;;;;;;12.55;10.02;;;11.90;71.80;;;;;;5104509;27;27466;-57
2021/04/30 16:20:00;;;;;;;14.38;10.25;;;11.80;71.10;;;;;;5107576;28;27404;-64
2021/04/30 16:22:45;;;;;;;12.35;10.18;;;11.80;71.40;;;;;;5107491;28;27453;-58
2021/04/30 16:25:30;;;;;;;13.82;10.52;;;11.80;71.60;;;;;;5105978;28;27944;-57
2021/04/30 16:28:15;;;;;;;29.92;11.63;;;11.70;71.60;;;;;;5106288;28;27458;-60
2021/04/30 16:31:06;;;;;;;17.38;11.00;;;11.70;69.90;;;;;;5107395;28;27413;-58
2021/04/30 16:33:53;;;;;;;14.52;11.27;;;11.70;70.60;;;;;;5107633;28;27354;-63
2021/04/30 16:36:37;;;;;;;16.38;11.73;;;11.60;71.10;;;;;;5107264;28;27386;-58
2021/04/30 16:39:23;;;;;;;17.45;10.98;;;11.60;71.40;;;;;;5107259;28;27574;-63
2021/04/30 16:42:08;;;;;;;15.35;9.93;;;11.60;71.60;;;;;;5107590;28;27348;-58
2021/04/30 16:44:53;;;;;;;14.25;11.68;;;11.60;71.60;;;;;;5107210;28;27320;-58
2021/04/30 16:47:38;;;;;;;14.45;11.23;;;11.60;71.30;;;;;;5106430;28;27853;-58
2021/04/30 16:50:23;;;;;;;15.32;10.75;;;11.50;71.40;;;;;;5107320;28;27386;-58
2021/04/30 16:53:08;;;;;;;14.52;10.45;;;11.50;71.70;;;;;;5107499;28;27396;-56
2021/04/30 16:55:53;;;;;;;16.17;11.07;;;11.40;71.80;;;;;;5106729;28;27347;-58
2021/04/30 16:58:38;;;;;;;12.98;10.52;;;11.40;71.50;;;;;;5103701;28;27339;-58
2021/04/30 17:01:24;;;;;;;14.80;11.23;;;11.40;71.90;;;;;;5107477;28;27394;-58
2021/04/30 17:04:08;;;;;;;14.88;10.90;;;11.40;72.10;;;;;;5107206;28;27378;-58
2021/04/30 17:06:54;;;;;;;17.00;10.85;;;11.40;72.10;;;;;;5106845;28;27378;-64
2021/04/30 17:09:39;;;;;;;16.40;11.18;;;11.40;72.00;;;;;;5107021;28;27399;-58
2021/04/30 17:12:24;;;;;;;14.70;10.90;;;11.40;73.00;;;;;;5106094;28;27404;-60
2021/04/30 17:15:09;;;;;;;16.80;12.20;;;11.40;72.20;;;;;;5106620;28;27387;-59
2021/04/30 17:17:54;;;;;;;16.55;11.77;;;11.40;72.30;;;;;;5106021;28;27463;-60
2021/04/30 17:20:38;;;;;;;14.23;11.48;;;11.40;72.20;;;;;;5106342;28;27369;-59
2021/04/30 17:23:24;;;;;;;15.85;10.38;;;11.40;72.00;;;;;;5102981;28;27551;-58
2021/04/30 17:26:08;;;;;;;16.45;12.05;;;11.40;72.00;;;;;;5104878;28;27404;-64
2021/04/30 17:28:53;;;;;;;19.23;13.13;;;11.40;72.00;;;;;;5106553;27;27368;-66
2021/04/30 17:31:38;;;;;;;14.15;11.05;;;11.30;72.00;;;;;;5106528;28;27374;-58
2021/04/30 17:34:34;;;;;;;16.08;11.68;;;11.30;72.20;;;;;;5106537;28;27339;-65
2021/04/30 17:37:33;;;;;;;15.85;12.43;;;11.30;72.10;;;;;;5077227;28;27504;-64
2021/04/30 17:40:18;;;;;;;15.65;11.68;;;11.30;72.20;;;;;;5106231;28;27455;-65
2021/04/30 17:43:06;;;;;;;18.08;12.65;;;11.30;72.00;;;;;;5102099;28;27577;-65
2021/04/30 17:45:50;;;;;;;17.83;12.95;;;11.20;72.00;;;;;;5106438;28;27374;-65
2021/04/30 17:48:43;;;;;;;17.30;12.90;;;11.20;72.30;;;;;;5102166;28;27321;-64
2021/04/30 17:51:29;;;;;;;12.82;10.75;;;11.20;72.40;;;;;;5105564;28;27420;-65
2021/04/30 17:54:14;;;;;;;15.32;11.30;;;11.20;72.30;;;;;;5105927;28;27485;-65
2021/04/30 17:56:58;;;;;;;14.65;11.43;;;11.10;72.50;;;;;;5087492;28;27492;-65
2021/04/30 17:59:46;;;;;;;15.43;11.40;;;11.10;72.60;;;;;;5106131;28;27473;-65
2021/04/30 18:02:34;;;;;;;17.58;12.20;;;11.10;72.60;;;;;;5105883;28;27455;-65
2021/04/30 18:05:22;;;;;;;17.77;11.65;;;11.10;72.60;;;;;;5106088;28;27313;-66
2021/04/30 18:08:06;;;;;;;15.90;11.48;;;11.10;72.50;;;;;;5105757;28;27461;-67
2021/04/30 18:10:51;;;;;;;14.93;11.52;;;11.10;72.50;;;;;;5105738;28;27464;-66
2021/04/30 18:13:36;;;;;;;14.27;10.77;;;11.10;72.50;;;;;;5102759;28;26879;-66
2021/04/30 18:16:20;;;;;;;14.05;10.80;;;11.10;72.50;;;;;;5105777;28;28027;-66
2021/04/30 18:19:05;;;;;;;18.33;12.98;;;11.10;72.40;;;;;;5105315;28;27461;-66
2021/04/30 18:21:52;;;;;;;16.92;11.55;;;11.10;72.60;;;;;;5105883;28;27423;-65
2021/04/30 18:24:44;;;;;;;14.13;11.32;;;11.10;72.60;;;;;;5105088;28;26917;-66
2021/04/30 18:27:30;;;;;;;15.80;12.13;;;11.10;72.30;;;;;;5102268;28;27406;-66
2021/04/30 18:30:17;;;;;;;17.90;12.10;;;11.10;72.30;;;;;;5105750;28;27450;-65
2021/04/30 18:33:01;;;;;;;17.98;12.43;;;11.10;72.30;;;;;;5105393;28;27462;-64
2021/04/30 18:35:46;;;;;;;17.83;13.63;;;11.00;72.30;;;;;;5105255;28;27441;-65
2021/04/30 18:38:30;;;;;;;16.90;13.13;;;11.00;72.50;;;;;;5105556;28;27430;-65
2021/04/30 18:41:15;;;;;;;18.50;12.93;;;11.00;72.70;;;;;;5104783;27;27478;-64
2021/04/30 18:44:03;;;;;;;18.00;12.88;;;11.00;72.80;;;;;;5105319;28;27477;-65
2021/04/30 18:46:48;;;;;;;16.40;12.85;;;10.90;72.80;;;;;;5104781;28;27501;-63
2021/04/30 18:49:38;;;;;;;17.60;13.65;;;10.90;72.70;;;;;;5101796;28;27446;-64
2021/04/30 18:52:24;;;;;;;16.45;13.13;;;10.90;72.80;;;;;;5105206;28;27439;-57
2021/04/30 18:55:11;;;;;;;18.08;14.02;;;10.90;73.00;;;;;;5082243;28;27554;-63
2021/04/30 18:57:56;;;;;;;21.17;14.98;;;10.90;73.10;;;;;;5082735;28;27578;-59
2021/04/30 19:00:41;;;;;;;18.83;15.02;;;10.90;73.30;;;;;;5083101;28;27518;-57
2021/04/30 19:03:26;;;;;;;19.98;15.25;;;10.80;73.20;;;;;;5079644;28;27448;-58
2021/04/30 19:06:10;;;;;;;20.85;15.38;;;10.80;73.20;;;;;;5079472;28;27522;-57
2021/04/30 19:08:55;;;;;;;20.17;14.45;;;10.80;73.10;;;;;;5051602;28;27472;-58
2021/04/30 19:11:40;;;;;;;25.17;16.83;;;10.80;73.20;;;;;;5082650;28;27568;-57
2021/04/30 19:14:24;;;;;;;27.42;18.77;;;10.80;73.10;;;;;;5079954;28;27551;-58
2021/04/30 19:17:11;;;;;;;29.08;19.27;;;10.80;73.10;;;;;;5082669;28;27363;-57
2021/04/30 19:19:55;;;;;;;37.30;22.55;;;10.80;73.20;;;;;;5082542;28;27534;-57
2021/04/30 19:22:42;;;;;;;23.88;17.75;;;10.80;73.20;;;;;;5079266;28;27474;-58
2021/04/30 19:25:27;;;;;;;29.35;18.02;;;10.80;73.20;;;;;;5089247;28;27599;-63
2021/04/30 19:28:12;;;;;;;27.35;17.92;;;10.80;73.20;;;;;;5100258;28;27455;-57
2021/04/30 19:30:57;;;;;;;26.13;17.67;;;10.80;73.00;;;;;;5104447;28;27446;-57
2021/04/30 19:33:42;;;;;;;22.27;16.65;;;10.80;73.20;;;;;;5104410;28;27477;-57
2021/04/30 19:36:27;;;;;;;24.38;16.65;;;10.80;73.30;;;;;;5104673;28;27475;-58
2021/04/30 19:39:11;;;;;;;22.70;16.58;;;10.70;73.20;;;;;;5104349;28;27451;-57
2021/04/30 19:41:56;;;;;;;24.88;16.80;;;10.70;73.30;;;;;;5103897;28;27382;-58
2021/04/30 19:44:41;;;;;;;22.70;16.77;;;10.70;73.30;;;;;;5103654;28;27454;-59
2021/04/30 19:47:25;;;;;;;20.70;15.55;;;10.70;73.30;;;;;;5103913;28;27468;-58
2021/04/30 19:50:11;;;;;;;23.02;16.35;;;10.70;73.40;;;;;;5104195;28;27435;-58
2021/04/30 19:52:56;;;;;;;23.77;15.80;;;10.70;73.40;;;;;;5105491;28;27485;-58
2021/04/30 19:55:40;;;;;;;25.38;17.00;;;10.70;73.30;;;;;;5108016;28;27452;-63
2021/04/30 19:58:25;;;;;;;26.90;19.40;;;10.70;73.30;;;;;;5107949;28;27434;-58
2021/04/30 20:01:10;;;;;;;40.33;23.13;;;10.70;73.60;;;;;;5107722;28;27497;-58
2021/04/30 20:03:57;;;;;;;26.88;18.70;;;10.70;73.80;;;;;;5107648;28;27465;-58
2021/04/30 20:06:41;;;;;;;29.30;19.45;;;10.60;74.60;;;;;;5107744;28;27542;-57
2021/04/30 20:09:26;;;;;;;27.38;17.88;;;10.60;73.90;;;;;;5107149;28;27450;-58